createdAt,value
2023-03-24T00:02:31.709Z,9.10
2023-03-24T00:05:02.211Z,9.17
2023-03-24T00:07:35.413Z,9.07
2023-03-24T00:10:25.315Z,9.08
2023-03-24T00:12:56.357Z,9.13
2023-03-24T00:15:28.158Z,8.97
2023-03-24T00:18:01.535Z,8.89
2023-03-24T00:20:31.591Z,9.00
2023-03-24T00:23:06.847Z,9.04
2023-03-24T00:28:36.598Z,9.39
2023-03-24T00:31:08.779Z,9.37
2023-03-24T00:33:48.167Z,9.23
2023-03-24T00:36:34.684Z,9.17
2023-03-24T00:39:13.091Z,9.22
2023-03-24T00:41:46.170Z,8.90
2023-03-24T00:44:19.129Z,8.84
2023-03-24T00:47:03.669Z,8.71
2023-03-24T00:49:49.039Z,8.51
2023-03-24T00:52:21.823Z,8.41
2023-03-24T00:54:56.051Z,8.50
2023-03-24T00:57:33.299Z,8.27
2023-03-24T01:00:28.291Z,8.05
2023-03-24T01:03:09.251Z,8.22
2023-03-24T01:05:42.955Z,7.95
2023-03-24T01:08:24.162Z,7.82
2023-03-24T01:11:00.295Z,7.93
2023-03-24T01:13:48.195Z,7.80
2023-03-24T01:16:17.646Z,8.02
2023-03-24T01:21:33.930Z,8.01
2023-03-24T01:24:13.577Z,7.74
2023-03-24T01:26:47.865Z,7.80
2023-03-24T01:29:16.815Z,7.78
2023-03-24T01:31:51.006Z,7.81
2023-03-24T01:34:38.815Z,7.79
2023-03-24T01:37:09.207Z,7.57
2023-03-24T01:39:40.396Z,7.87
2023-03-24T01:42:24.543Z,8.25
2023-03-24T01:45:45.735Z,7.85
2023-03-24T01:49:00.267Z,8.41
2023-03-24T01:51:37.765Z,8.64
2023-03-24T01:54:32.203Z,8.65
2023-03-24T01:57:35.386Z,8.03
2023-03-24T02:00:15.193Z,7.84
2023-03-24T02:03:12.444Z,7.85
2023-03-24T02:05:53.635Z,7.76
2023-03-24T02:11:37.014Z,7.59
2023-03-24T02:14:19.945Z,7.00
2023-03-24T02:17:11.296Z,6.07
2023-03-24T02:20:11.736Z,6.45
2023-03-24T02:23:37.086Z,6.78
2023-03-24T02:26:34.256Z,6.85
2023-03-24T02:30:09.423Z,6.58
2023-03-24T02:33:17.086Z,6.50
2023-03-24T02:36:23.352Z,6.26
2023-03-24T02:39:23.883Z,6.37
2023-03-24T02:42:44.362Z,6.45
2023-03-24T02:45:44.400Z,6.81
2023-03-24T02:48:32.414Z,7.12
2023-03-24T02:51:18.500Z,7.37
2023-03-24T02:54:20.823Z,7.50
2023-03-24T02:57:06.017Z,7.43
2023-03-24T03:00:26.108Z,7.66
2023-03-24T03:03:43.133Z,8.17
2023-03-24T03:06:35.014Z,8.43
2023-03-24T03:09:09.867Z,8.41
2023-03-24T03:11:49.972Z,7.20
2023-03-24T03:15:08.680Z,6.83
2023-03-24T03:17:55.281Z,6.82
2023-03-24T03:20:30.892Z,6.86
2023-03-24T03:23:05.909Z,6.90
2023-03-24T03:25:56.722Z,6.91
2023-03-24T03:28:32.259Z,6.96
2023-03-24T03:31:08.750Z,6.65
2023-03-24T03:34:36.765Z,7.00
2023-03-24T03:37:11.847Z,7.05
2023-03-24T03:39:56.432Z,6.79
2023-03-24T03:42:33.273Z,6.78
2023-03-24T03:45:03.079Z,6.57
2023-03-24T03:47:34.573Z,6.63
2023-03-24T03:50:22.023Z,6.63
2023-03-24T03:52:54.563Z,6.43
2023-03-24T03:55:25.929Z,6.55
2023-03-24T03:57:58.260Z,6.56
2023-03-24T04:00:49.613Z,6.57
2023-03-24T04:04:29.422Z,6.52
2023-03-24T04:07:40.858Z,6.53
2023-03-24T04:11:05.725Z,6.05
2023-03-24T04:13:48.445Z,6.03
2023-03-24T04:17:02.366Z,6.05
2023-03-24T04:20:17.414Z,5.73
2023-03-24T04:23:26.434Z,5.74
2023-03-24T04:26:30.235Z,5.71
2023-03-24T04:29:23.322Z,5.90
2023-03-24T04:32:06.231Z,6.16
2023-03-24T04:34:46.250Z,5.81
2023-03-24T04:37:40.965Z,5.88
2023-03-24T04:40:29.364Z,5.95
2023-03-24T04:43:04.718Z,5.91
2023-03-24T04:45:38.742Z,6.08
2023-03-24T04:48:41.997Z,6.06
2023-03-24T04:51:32.801Z,6.03
2023-03-24T04:54:23.854Z,5.96
2023-03-24T04:57:06.996Z,5.84
2023-03-24T04:59:43.517Z,5.87
2023-03-24T05:02:15.207Z,5.42
2023-03-24T05:05:17.218Z,5.64
2023-03-24T05:10:36.008Z,5.66
2023-03-24T05:13:27.788Z,5.62
2023-03-24T05:16:05.694Z,5.53
2023-03-24T05:18:44.217Z,5.19
2023-03-24T05:24:07.863Z,5.71
2023-03-24T05:26:39.757Z,5.48
2023-03-24T05:29:17.676Z,5.78
2023-03-24T05:31:52.279Z,5.87
2023-03-24T05:34:27.658Z,6.22
2023-03-24T05:37:17.039Z,5.74
2023-03-24T05:40:00.958Z,6.20
2023-03-24T05:42:44.388Z,6.34
2023-03-24T05:45:45.218Z,6.53
2023-03-24T05:48:26.737Z,6.33
2023-03-24T05:54:10.940Z,6.55
2023-03-24T05:56:58.643Z,6.76
2023-03-24T05:59:59.040Z,6.66
2023-03-24T06:02:52.781Z,6.84
2023-03-24T06:05:49.305Z,6.86
2023-03-24T06:08:22.265Z,7.13
2023-03-24T06:11:01.636Z,7.47
2023-03-24T06:13:37.221Z,7.72
2023-03-24T06:16:10.491Z,7.87
2023-03-24T06:18:54.216Z,8.06
2023-03-24T06:21:51.816Z,8.29
2023-03-24T06:24:39.534Z,8.66
2023-03-24T06:27:17.607Z,8.85
2023-03-24T06:29:48.714Z,9.00
2023-03-24T06:32:22.363Z,9.20
2023-03-24T06:35:08.056Z,9.51
2023-03-24T06:37:49.046Z,9.28
2023-03-24T06:40:24.582Z,9.58
2023-03-24T06:43:06.133Z,9.68
2023-03-24T06:45:45.735Z,9.77
2023-03-24T06:48:37.088Z,9.62
2023-03-24T06:51:12.315Z,9.48
2023-03-24T06:53:45.749Z,9.63
2023-03-24T06:56:18.530Z,9.72
2023-03-24T06:58:56.114Z,9.84
2023-03-24T07:01:52.250Z,9.98
2023-03-24T07:04:38.426Z,10.15
2023-03-24T07:08:06.062Z,10.25
2023-03-24T07:10:50.684Z,10.48
2023-03-24T07:13:25.401Z,10.49
2023-03-24T07:16:21.738Z,10.57
2023-03-24T07:18:59.347Z,10.59
2023-03-24T07:21:36.072Z,10.55
2023-03-24T07:24:10.311Z,10.71
2023-03-24T07:27:01.445Z,10.80
2023-03-24T07:29:36.292Z,10.90
2023-03-24T07:32:29.914Z,11.08
2023-03-24T07:35:07.195Z,11.13
2023-03-24T07:37:38.228Z,11.48
2023-03-24T07:40:14.002Z,11.66
2023-03-24T07:42:49.691Z,12.03
2023-03-24T07:45:41.439Z,12.25
2023-03-24T07:48:13.319Z,12.44
2023-03-24T07:50:45.061Z,12.88
2023-03-24T07:53:37.721Z,13.05
2023-03-24T07:56:09.005Z,13.32
2023-03-24T07:58:48.370Z,13.51
2023-03-24T08:01:38.098Z,13.55
2023-03-24T08:04:17.289Z,13.72
2023-03-24T08:07:21.155Z,14.02
2023-03-24T08:09:55.882Z,14.12
2023-03-24T08:12:32.332Z,14.15
2023-03-24T08:15:01.801Z,14.43
2023-03-24T08:17:47.846Z,14.52
2023-03-24T08:20:20.274Z,14.82
2023-03-24T08:22:59.605Z,14.99
2023-03-24T08:25:32.373Z,15.13
2023-03-24T08:28:03.068Z,15.26
2023-03-24T08:30:36.092Z,15.51
2023-03-24T08:33:13.863Z,15.54
2023-03-24T08:35:48.879Z,15.81
2023-03-24T08:38:35.278Z,15.88
2023-03-24T08:41:09.972Z,15.70
2023-03-24T08:43:48.563Z,15.72
2023-03-24T08:46:19.112Z,15.98
2023-03-24T08:51:41.587Z,16.28
2023-03-24T08:54:25.454Z,16.22
2023-03-24T08:56:59.190Z,16.33
2023-03-24T08:59:37.256Z,16.56
2023-03-24T09:02:08.143Z,16.68
2023-03-24T09:04:45.835Z,16.60
2023-03-24T09:07:17.162Z,16.57
2023-03-24T09:09:51.853Z,16.27
2023-03-24T09:12:23.198Z,16.79
2023-03-24T09:14:54.899Z,16.95
2023-03-24T09:17:26.352Z,17.01
2023-03-24T09:20:09.208Z,17.11
2023-03-24T09:22:44.665Z,17.11
2023-03-24T09:25:30.228Z,17.49
2023-03-24T09:28:01.927Z,17.69
2023-03-24T09:33:18.253Z,17.56
2023-03-24T09:35:49.194Z,17.75
2023-03-24T09:38:23.704Z,17.77
2023-03-24T09:41:29.233Z,17.73
2023-03-24T09:44:11.153Z,17.42
2023-03-24T09:46:56.168Z,17.79
2023-03-24T09:49:34.280Z,17.71
2023-03-24T09:52:17.387Z,17.79
2023-03-24T09:55:05.994Z,18.19
2023-03-24T09:57:46.554Z,18.08
2023-03-24T10:00:25.450Z,18.11
2023-03-24T10:02:57.675Z,18.18
2023-03-24T10:05:52.064Z,18.36
2023-03-24T10:08:56.042Z,18.49
2023-03-24T10:12:24.225Z,18.82
2023-03-24T10:15:27.173Z,18.89
2023-03-24T10:21:41.525Z,19.12
2023-03-24T10:24:33.079Z,19.25
2023-03-24T10:27:41.663Z,19.36
2023-03-24T10:30:26.742Z,19.22
2023-03-24T10:32:59.526Z,19.66
2023-03-24T10:35:47.661Z,19.27
2023-03-24T10:38:30.159Z,19.89
2023-03-24T10:40:58.543Z,19.28
2023-03-24T10:43:46.558Z,19.39
2023-03-24T10:46:18.425Z,19.28
2023-03-24T10:49:16.147Z,19.18
2023-03-24T10:51:59.658Z,19.41
2023-03-24T10:54:48.872Z,19.57
2023-03-24T10:57:35.537Z,19.50
2023-03-24T11:00:15.636Z,20.22
2023-03-24T11:02:51.292Z,19.67
2023-03-24T11:05:34.057Z,20.13
2023-03-24T11:08:33.828Z,20.02
2023-03-24T11:11:16.958Z,20.29
2023-03-24T11:13:57.029Z,20.04
2023-03-24T11:16:56.226Z,20.10
2023-03-24T11:19:29.858Z,20.23
2023-03-24T11:22:09.884Z,20.28
2023-03-24T11:24:49.934Z,20.53
2023-03-24T11:27:29.667Z,20.19
2023-03-24T11:30:02.372Z,20.28
2023-03-24T11:32:33.064Z,20.84
2023-03-24T11:35:17.812Z,20.81
2023-03-24T11:38:16.115Z,20.15
2023-03-24T11:40:59.384Z,20.07
2023-03-24T11:43:35.054Z,20.01
2023-03-24T11:46:21.697Z,20.21
2023-03-24T11:49:05.157Z,19.93
2023-03-24T11:51:40.103Z,20.11
2023-03-24T11:54:14.502Z,20.12
2023-03-24T11:56:59.176Z,20.33
2023-03-24T11:59:40.878Z,20.30
2023-03-24T12:02:19.906Z,20.34
2023-03-24T12:05:09.123Z,20.29
2023-03-24T12:08:14.864Z,20.48
2023-03-24T12:11:11.626Z,21.10
2023-03-24T12:13:52.024Z,21.15
2023-03-24T12:17:00.903Z,21.04
2023-03-24T12:19:37.351Z,20.70
2023-03-24T12:22:30.022Z,20.86
2023-03-24T12:25:21.929Z,20.49
2023-03-24T12:28:11.007Z,20.10
2023-03-24T12:31:23.647Z,20.94
2023-03-24T12:34:44.734Z,20.94
2023-03-24T12:37:41.228Z,20.67
2023-03-24T12:40:33.934Z,20.53
2023-03-24T12:43:52.798Z,20.64
2023-03-24T12:47:05.604Z,20.30
2023-03-24T12:50:05.662Z,19.86
2023-03-24T12:53:19.507Z,19.76
2023-03-24T12:56:06.873Z,19.68
2023-03-24T12:58:50.719Z,19.98
2023-03-24T13:01:44.579Z,19.59
2023-03-24T13:07:32.545Z,19.49
2023-03-24T13:10:22.683Z,19.45
2023-03-24T13:13:23.422Z,19.35
2023-03-24T13:16:07.741Z,19.22
2023-03-24T13:18:42.397Z,19.20
2023-03-24T13:24:24.546Z,19.14
2023-03-24T13:27:30.956Z,19.35
2023-03-24T13:30:46.378Z,19.41
2023-03-24T13:33:22.003Z,19.13
2023-03-24T13:36:32.839Z,19.65
2023-03-24T13:39:07.008Z,19.54
2023-03-24T13:41:59.408Z,19.60
2023-03-24T13:44:47.377Z,19.82
2023-03-24T13:47:27.895Z,19.77
2023-03-24T13:50:08.755Z,19.46
2023-03-24T13:52:50.575Z,19.29
2023-03-24T13:55:34.581Z,19.49
2023-03-24T13:58:43.655Z,19.76
2023-03-24T14:01:17.996Z,19.38
2023-03-24T14:03:48.480Z,19.79
2023-03-24T14:06:25.645Z,19.95
2023-03-24T14:08:56.985Z,19.37
2023-03-24T14:11:38.770Z,19.10
2023-03-24T14:14:25.745Z,19.26
2023-03-24T14:17:14.826Z,19.06
2023-03-24T14:19:49.835Z,19.76
2023-03-24T14:22:32.896Z,23.22
2023-03-24T14:25:14.549Z,23.78
2023-03-24T14:30:38.722Z,23.60
2023-03-24T14:33:27.349Z,23.60
2023-03-24T14:36:06.969Z,22.59
2023-03-24T14:38:43.326Z,21.61
2023-03-24T14:41:25.628Z,21.38
2023-03-24T14:43:58.067Z,21.80
2023-03-24T14:46:49.202Z,21.05
2023-03-24T14:49:41.936Z,22.28
2023-03-24T14:52:13.515Z,19.88
2023-03-24T14:54:47.903Z,18.73
2023-03-24T14:57:30.322Z,18.28
2023-03-24T15:00:18.397Z,18.05
2023-03-24T15:02:53.174Z,17.80
2023-03-24T15:05:44.691Z,17.58
2023-03-24T15:08:25.862Z,17.38
2023-03-24T15:11:12.954Z,17.26
2023-03-24T15:16:39.025Z,17.03
2023-03-24T15:19:26.290Z,16.98
2023-03-24T15:22:09.129Z,16.73
2023-03-24T15:24:41.719Z,16.74
2023-03-24T15:27:09.409Z,16.95
2023-03-24T15:29:41.725Z,16.72
2023-03-24T15:32:20.700Z,16.59
2023-03-24T15:35:01.622Z,16.61
2023-03-24T15:40:35.048Z,18.06
2023-03-24T15:43:25.802Z,17.66
2023-03-24T15:46:10.978Z,17.05
2023-03-24T15:48:53.478Z,17.07
2023-03-24T15:51:58.260Z,17.46
2023-03-24T15:54:54.865Z,17.80
2023-03-24T15:57:29.862Z,18.30
2023-03-24T16:00:09.475Z,18.09
2023-03-24T16:02:49.226Z,17.55
2023-03-24T16:05:31.566Z,17.15
2023-03-24T16:08:04.701Z,16.65
2023-03-24T16:11:00.660Z,16.61
2023-03-24T16:13:31.838Z,16.56
2023-03-24T16:16:05.940Z,16.52
2023-03-24T16:18:36.506Z,16.46
2023-03-24T16:21:16.695Z,16.37
2023-03-24T16:23:50.810Z,16.25
2023-03-24T16:26:35.920Z,16.25
2023-03-24T16:29:18.024Z,16.13
2023-03-24T16:31:52.208Z,15.54
2023-03-24T16:34:31.724Z,15.90
2023-03-24T16:37:04.265Z,15.70
2023-03-24T16:42:31.504Z,15.54
2023-03-24T16:45:00.089Z,15.51
2023-03-24T16:47:31.146Z,15.42
2023-03-24T16:50:04.727Z,15.21
2023-03-24T16:52:36.112Z,15.19
2023-03-24T16:55:20.983Z,15.25
2023-03-24T16:57:58.722Z,15.19
2023-03-24T17:03:13.807Z,15.05
2023-03-24T17:05:55.631Z,14.99
2023-03-24T17:08:30.903Z,14.85
2023-03-24T17:11:06.884Z,14.90
2023-03-24T17:16:18.365Z,14.91
2023-03-24T17:18:49.621Z,14.65
2023-03-24T17:21:30.976Z,14.70
2023-03-24T17:24:06.067Z,14.58
2023-03-24T17:26:34.376Z,14.73
2023-03-24T17:29:03.444Z,14.65
2023-03-24T17:31:34.590Z,14.74
2023-03-24T17:34:20.765Z,14.77
2023-03-24T17:36:55.687Z,14.80
2023-03-24T17:39:26.669Z,14.69
2023-03-24T17:44:54.437Z,14.63
2023-03-24T17:47:24.905Z,14.66
2023-03-24T17:52:45.816Z,14.60
2023-03-24T17:55:17.189Z,14.47
2023-03-24T17:57:45.347Z,14.44
2023-03-24T18:00:26.527Z,14.50
2023-03-24T18:02:57.600Z,14.52
2023-03-24T18:05:28.512Z,14.44
2023-03-24T18:08:08.667Z,14.13
2023-03-24T18:10:40.486Z,14.45
2023-03-24T18:13:11.336Z,14.38
2023-03-24T18:15:45.393Z,14.32
2023-03-24T18:18:18.825Z,14.39
2023-03-24T18:20:51.625Z,14.40
2023-03-24T18:23:22.434Z,14.52
2023-03-24T18:25:59.199Z,14.48
2023-03-24T18:28:48.792Z,14.02
2023-03-24T18:31:28.627Z,14.33
2023-03-24T18:33:59.013Z,14.32
2023-03-24T18:39:17.616Z,14.38
2023-03-24T18:41:48.313Z,14.37
2023-03-24T18:44:20.176Z,14.37
2023-03-24T18:46:54.058Z,14.29
2023-03-24T18:49:25.631Z,14.39
2023-03-24T18:52:03.322Z,14.47
2023-03-24T18:54:33.873Z,14.43
2023-03-24T18:57:05.077Z,14.36
2023-03-24T18:59:34.412Z,14.43
2023-03-24T19:02:05.706Z,14.39
2023-03-24T19:04:36.568Z,14.26
2023-03-24T19:07:07.985Z,14.35
2023-03-24T19:09:38.713Z,14.35
2023-03-24T19:12:10.663Z,14.38
2023-03-24T19:14:44.748Z,14.35
2023-03-24T19:17:23.476Z,14.39
2023-03-24T19:19:53.950Z,14.23
2023-03-24T19:22:26.850Z,14.34
2023-03-24T19:24:57.485Z,14.42
2023-03-24T19:27:28.320Z,14.29
2023-03-24T19:30:02.569Z,14.24
2023-03-24T19:32:39.838Z,14.21
2023-03-24T19:35:12.107Z,14.22
2023-03-24T19:37:40.558Z,14.27
2023-03-24T19:40:15.837Z,14.12
2023-03-24T19:42:47.087Z,14.23
2023-03-24T19:45:25.486Z,14.32
2023-03-24T19:47:55.828Z,14.24
2023-03-24T19:50:27.505Z,14.28
2023-03-24T19:52:56.826Z,14.13
2023-03-24T19:55:29.105Z,14.28
2023-03-24T19:58:07.574Z,14.14
2023-03-24T20:00:38.578Z,14.09
2023-03-24T20:03:17.390Z,14.15
2023-03-24T20:05:46.082Z,14.14
2023-03-24T20:08:25.008Z,14.18
2023-03-24T20:10:56.021Z,14.16
2023-03-24T20:13:30.338Z,14.15
2023-03-24T20:16:10.849Z,14.24
2023-03-24T20:18:39.304Z,14.28
2023-03-24T20:21:12.692Z,14.15
2023-03-24T20:23:50.403Z,14.07
2023-03-24T20:26:27.689Z,14.00
2023-03-24T20:28:57.411Z,14.21
2023-03-24T20:31:29.607Z,14.06
2023-03-24T20:33:57.563Z,14.06
2023-03-24T20:42:06.020Z,13.95
2023-03-24T20:44:36.383Z,14.08
2023-03-24T20:47:15.427Z,13.91
2023-03-24T20:49:56.210Z,14.08
2023-03-24T20:52:29.537Z,14.09
2023-03-24T20:55:01.907Z,14.12
2023-03-24T20:57:35.058Z,14.09
2023-03-24T21:03:04.901Z,13.90
2023-03-24T21:05:38.707Z,14.03
2023-03-24T21:08:11.766Z,14.07
2023-03-24T21:10:44.693Z,14.01
2023-03-24T21:13:24.743Z,13.84
2023-03-24T21:16:02.394Z,13.93
2023-03-24T21:18:35.196Z,13.92
2023-03-24T21:21:05.366Z,13.70
2023-03-24T21:23:39.097Z,13.79
2023-03-24T21:26:18.464Z,13.86
2023-03-24T21:28:54.822Z,13.88
2023-03-24T21:31:29.793Z,13.89
2023-03-24T21:34:01.345Z,13.88
2023-03-24T21:36:38.978Z,13.84
2023-03-24T21:39:15.353Z,13.80
2023-03-24T21:41:46.242Z,13.89
2023-03-24T21:44:22.206Z,13.91
2023-03-24T21:46:52.348Z,13.88
2023-03-24T21:49:23.530Z,13.90
2023-03-24T21:51:57.460Z,13.87
2023-03-24T21:54:29.523Z,13.84
2023-03-24T21:56:59.283Z,13.88
2023-03-24T21:59:34.717Z,13.83
2023-03-24T22:02:24.206Z,13.81
2023-03-24T22:05:04.795Z,13.79
2023-03-24T22:07:38.004Z,13.75
2023-03-24T22:10:18.486Z,13.77
2023-03-24T22:13:02.408Z,13.74
2023-03-24T22:15:35.468Z,13.71
2023-03-24T22:21:17.929Z,13.76
2023-03-24T22:23:46.665Z,13.62
2023-03-24T22:26:20.791Z,13.65
2023-03-24T22:31:49.864Z,13.56
2023-03-24T22:34:25.865Z,13.71
2023-03-24T22:36:59.913Z,13.69
2023-03-24T22:39:31.890Z,13.67
2023-03-24T22:42:03.623Z,13.70
2023-03-24T22:44:34.870Z,13.68
2023-03-24T22:47:10.196Z,13.70
2023-03-24T22:49:43.773Z,13.68
2023-03-24T22:52:28.229Z,13.73
2023-03-24T22:55:08.752Z,13.68
2023-03-24T23:00:33.584Z,13.71
2023-03-24T23:03:04.698Z,13.69
2023-03-24T23:05:46.034Z,13.66
2023-03-24T23:08:17.232Z,13.72
2023-03-24T23:10:52.276Z,13.71
2023-03-24T23:13:29.796Z,13.67
2023-03-24T23:15:59.841Z,13.59
2023-03-24T23:18:30.360Z,13.63
2023-03-24T23:21:18.282Z,13.60
2023-03-24T23:23:49.620Z,13.57
2023-03-24T23:26:25.127Z,13.64
2023-03-24T23:28:56.715Z,13.64
2023-03-24T23:31:41.516Z,13.58
2023-03-24T23:34:14.563Z,13.63
2023-03-24T23:36:54.750Z,13.63
2023-03-24T23:39:32.279Z,13.63
2023-03-24T23:42:08.558Z,13.62
2023-03-24T23:44:40.610Z,13.62
2023-03-24T23:47:08.945Z,13.67
2023-03-24T23:49:40.663Z,13.55
2023-03-24T23:52:11.798Z,13.63
2023-03-24T23:54:42.354Z,13.57
2023-03-24T23:57:16.177Z,13.59
2023-03-24T23:59:44.549Z,13.49
